createdAt,value
2022-08-31T00:00:32.278Z,16.00
2022-08-31T00:03:18.249Z,15.90
2022-08-31T00:05:47.021Z,15.90
2022-08-31T00:08:15.226Z,15.80
2022-08-31T00:10:46.610Z,15.80
2022-08-31T00:13:15.764Z,15.80
2022-08-31T00:15:46.314Z,15.70
2022-08-31T00:18:14.847Z,15.70
2022-08-31T00:20:43.589Z,15.70
2022-08-31T00:23:13.686Z,15.60
2022-08-31T00:25:43.299Z,15.60
2022-08-31T00:28:14.804Z,15.60
2022-08-31T00:30:43.496Z,15.60
2022-08-31T00:33:12.586Z,15.50
2022-08-31T00:35:41.973Z,15.50
2022-08-31T00:38:11.375Z,15.50
2022-08-31T00:40:44.855Z,15.40
2022-08-31T00:43:30.445Z,15.40
2022-08-31T00:45:58.528Z,15.40
2022-08-31T00:48:26.714Z,15.30
2022-08-31T00:50:55.012Z,15.30
2022-08-31T00:53:23.253Z,15.30
2022-08-31T00:55:51.520Z,15.20
2022-08-31T00:58:21.639Z,15.20
2022-08-31T01:00:50.127Z,15.10
2022-08-31T01:03:19.444Z,15.10
2022-08-31T01:05:48.063Z,15.00
2022-08-31T01:08:16.319Z,15.00
2022-08-31T01:10:45.864Z,15.00
2022-08-31T01:13:16.730Z,14.90
2022-08-31T01:15:54.165Z,14.90
2022-08-31T01:18:24.523Z,14.80
2022-08-31T01:21:01.810Z,14.80
2022-08-31T01:23:35.896Z,14.70
2022-08-31T01:26:05.764Z,14.70
2022-08-31T01:28:34.100Z,14.70
2022-08-31T01:31:05.828Z,14.70
2022-08-31T01:33:36.195Z,14.60
2022-08-31T01:36:04.751Z,14.60
2022-08-31T01:38:35.815Z,14.60
2022-08-31T01:41:05.155Z,14.50
2022-08-31T01:43:34.609Z,14.50
2022-08-31T01:46:03.133Z,14.50
2022-08-31T01:48:33.812Z,14.40
2022-08-31T01:51:02.923Z,14.40
2022-08-31T01:53:32.029Z,14.30
2022-08-31T01:56:01.777Z,14.30
2022-08-31T01:58:29.983Z,14.30
2022-08-31T02:00:58.251Z,14.20
2022-08-31T02:03:26.411Z,14.20
2022-08-31T02:08:21.654Z,14.10
2022-08-31T02:10:49.833Z,14.00
2022-08-31T02:13:19.592Z,14.00
2022-08-31T02:15:47.921Z,14.00
2022-08-31T02:18:16.061Z,13.90
2022-08-31T02:20:46.145Z,13.90
2022-08-31T02:23:14.408Z,13.90
2022-08-31T02:25:42.567Z,13.80
2022-08-31T02:28:12.777Z,13.80
2022-08-31T02:30:42.973Z,13.70
2022-08-31T02:33:12.103Z,13.70
2022-08-31T02:35:40.757Z,13.60
2022-08-31T02:38:10.205Z,13.60
2022-08-31T02:40:41.123Z,13.60
2022-08-31T02:43:10.938Z,13.50
2022-08-31T02:45:43.876Z,13.50
2022-08-31T02:48:19.121Z,13.50
2022-08-31T02:50:50.159Z,13.40
2022-08-31T02:53:20.668Z,13.40
2022-08-31T02:55:49.827Z,13.30
2022-08-31T02:58:23.365Z,13.30
2022-08-31T03:00:54.228Z,13.30
2022-08-31T03:03:23.380Z,13.20
2022-08-31T03:05:51.885Z,13.20
2022-08-31T03:08:20.132Z,13.20
2022-08-31T03:10:48.266Z,13.10
2022-08-31T03:13:16.647Z,13.10
2022-08-31T03:15:45.195Z,13.10
2022-08-31T03:18:14.743Z,13.00
2022-08-31T03:20:42.809Z,13.00
2022-08-31T03:23:12.219Z,12.90
2022-08-31T03:25:41.089Z,12.90
2022-08-31T03:28:09.649Z,12.90
2022-08-31T03:30:38.074Z,12.80
2022-08-31T03:33:06.342Z,12.80
2022-08-31T03:35:36.326Z,12.80
2022-08-31T03:38:05.445Z,12.70
2022-08-31T03:40:34.016Z,12.70
2022-08-31T03:43:02.388Z,12.60
2022-08-31T03:45:32.111Z,12.60
2022-08-31T03:48:00.485Z,12.50
2022-08-31T03:50:28.616Z,12.50
2022-08-31T03:52:58.304Z,12.40
2022-08-31T03:55:28.614Z,12.40
2022-08-31T03:57:57.244Z,12.40
2022-08-31T04:00:25.802Z,12.40
2022-08-31T04:02:59.642Z,12.30
2022-08-31T04:05:28.233Z,12.30
2022-08-31T04:07:58.036Z,12.30
2022-08-31T04:10:26.529Z,12.30
2022-08-31T04:12:54.815Z,12.30
2022-08-31T04:15:23.858Z,12.30
2022-08-31T04:17:55.004Z,12.30
2022-08-31T04:20:29.646Z,12.30
2022-08-31T04:22:59.835Z,12.20
2022-08-31T04:25:28.034Z,12.20
2022-08-31T04:27:58.119Z,12.20
2022-08-31T04:30:26.501Z,12.20
2022-08-31T04:32:55.412Z,12.20
2022-08-31T04:35:23.674Z,12.20
2022-08-31T04:37:51.776Z,12.20
2022-08-31T04:40:25.564Z,12.20
2022-08-31T04:42:55.035Z,12.20
2022-08-31T04:45:24.063Z,12.30
2022-08-31T04:47:52.314Z,12.30
2022-08-31T04:50:20.617Z,12.30
2022-08-31T04:53:03.187Z,12.30
2022-08-31T04:55:34.152Z,12.30
2022-08-31T04:58:02.302Z,12.40
2022-08-31T05:00:30.537Z,12.40
2022-08-31T05:02:58.717Z,12.40
2022-08-31T05:05:26.878Z,12.50
2022-08-31T05:07:55.027Z,12.50
2022-08-31T05:10:24.734Z,12.60
2022-08-31T05:12:54.276Z,12.60
2022-08-31T05:15:22.439Z,12.70
2022-08-31T05:17:50.706Z,12.70
2022-08-31T05:20:19.022Z,12.80
2022-08-31T05:22:47.120Z,12.80
2022-08-31T05:25:15.331Z,12.90
2022-08-31T05:27:43.514Z,12.90
2022-08-31T05:30:13.963Z,13.00
2022-08-31T05:32:42.213Z,13.10
2022-08-31T05:35:10.407Z,13.30
2022-08-31T05:37:39.281Z,13.40
2022-08-31T05:40:08.944Z,13.60
2022-08-31T05:42:37.519Z,13.80
2022-08-31T05:45:06.513Z,14.00
2022-08-31T05:47:35.973Z,14.20
2022-08-31T05:50:08.421Z,14.40
2022-08-31T05:52:36.851Z,14.70
2022-08-31T05:55:05.612Z,15.00
2022-08-31T05:57:33.743Z,15.10
2022-08-31T06:00:02.207Z,15.20
2022-08-31T06:02:30.341Z,15.20
2022-08-31T06:04:59.893Z,15.30
2022-08-31T06:07:28.156Z,15.30
2022-08-31T06:09:56.276Z,15.40
2022-08-31T06:12:26.008Z,15.60
2022-08-31T06:14:55.937Z,15.80
2022-08-31T06:17:24.273Z,15.90
2022-08-31T06:19:52.523Z,16.00
2022-08-31T06:22:23.473Z,16.10
2022-08-31T06:24:51.825Z,16.30
2022-08-31T06:27:20.538Z,16.40
2022-08-31T06:29:49.327Z,16.60
2022-08-31T06:32:17.609Z,16.90
2022-08-31T06:34:45.766Z,17.40
2022-08-31T06:37:18.866Z,17.90
2022-08-31T06:39:48.913Z,18.00
2022-08-31T06:42:20.639Z,17.90
2022-08-31T06:44:50.839Z,17.80
2022-08-31T06:47:23.436Z,17.60
2022-08-31T06:49:53.030Z,17.50
2022-08-31T06:52:21.403Z,17.40
2022-08-31T06:54:51.061Z,17.40
2022-08-31T06:57:19.733Z,17.40
2022-08-31T06:59:48.018Z,17.60
2022-08-31T07:02:16.285Z,17.90
2022-08-31T07:04:44.746Z,18.50
2022-08-31T07:07:12.984Z,18.50
2022-08-31T07:09:42.217Z,18.60
2022-08-31T07:12:11.702Z,18.60
2022-08-31T07:14:39.998Z,18.50
2022-08-31T07:17:08.414Z,18.30
2022-08-31T07:19:36.705Z,18.30
2022-08-31T07:22:09.232Z,18.30
2022-08-31T07:24:41.471Z,18.30
2022-08-31T07:27:16.340Z,18.40
2022-08-31T07:29:45.042Z,18.40
2022-08-31T07:32:15.851Z,18.30
2022-08-31T07:34:45.022Z,18.40
2022-08-31T07:37:30.534Z,18.40
2022-08-31T07:40:16.081Z,18.40
2022-08-31T07:42:47.762Z,18.40
2022-08-31T07:45:23.298Z,18.50
2022-08-31T07:47:53.451Z,18.50
2022-08-31T07:50:23.289Z,18.60
2022-08-31T07:52:54.575Z,18.60
2022-08-31T07:55:25.022Z,18.90
2022-08-31T07:57:55.395Z,19.10
2022-08-31T08:00:26.518Z,19.30
2022-08-31T08:02:55.380Z,19.40
2022-08-31T08:05:26.802Z,19.40
2022-08-31T08:08:09.384Z,19.60
2022-08-31T08:10:52.163Z,19.90
2022-08-31T08:13:23.205Z,20.10
2022-08-31T08:15:52.345Z,20.10
2022-08-31T08:18:21.178Z,20.30
2022-08-31T08:20:49.549Z,20.30
2022-08-31T08:23:26.838Z,20.40
2022-08-31T08:25:57.831Z,20.60
2022-08-31T08:28:39.258Z,20.90
2022-08-31T08:31:14.054Z,21.20
2022-08-31T08:33:42.664Z,21.50
2022-08-31T08:36:11.255Z,21.70
2022-08-31T08:38:43.852Z,21.90
2022-08-31T08:41:15.284Z,21.70
2022-08-31T08:43:50.099Z,21.70
2022-08-31T08:46:36.638Z,21.80
2022-08-31T08:49:14.355Z,21.70
2022-08-31T08:51:42.667Z,21.30
2022-08-31T08:54:14.280Z,21.40
2022-08-31T08:56:47.747Z,21.40
2022-08-31T08:59:20.021Z,21.40
2022-08-31T09:01:52.733Z,21.60
2022-08-31T09:04:41.259Z,21.90
2022-08-31T09:07:23.098Z,22.20
2022-08-31T09:09:58.714Z,22.50
2022-08-31T09:12:33.892Z,22.70
2022-08-31T09:15:36.465Z,23.10
2022-08-31T09:18:16.257Z,23.40
2022-08-31T09:20:44.764Z,23.70
2022-08-31T09:23:14.344Z,23.90
2022-08-31T09:25:52.479Z,24.30
2022-08-31T09:28:35.863Z,24.50
2022-08-31T09:31:06.122Z,24.70
2022-08-31T09:33:47.657Z,24.70
2022-08-31T09:36:18.124Z,24.80
2022-08-31T09:38:47.928Z,24.90
2022-08-31T09:41:31.160Z,24.90
2022-08-31T09:44:39.272Z,25.20
2022-08-31T09:47:40.418Z,25.40
2022-08-31T09:50:09.800Z,25.60
2022-08-31T09:52:56.210Z,25.50
2022-08-31T09:55:28.143Z,25.50
2022-08-31T09:57:59.301Z,25.60
2022-08-31T10:00:34.379Z,25.60
2022-08-31T10:03:21.130Z,25.20
2022-08-31T10:05:52.019Z,24.90
2022-08-31T10:08:42.527Z,24.70
2022-08-31T10:11:15.820Z,24.60
2022-08-31T10:13:57.189Z,24.70
2022-08-31T10:16:31.433Z,25.00
2022-08-31T10:19:05.768Z,24.80
2022-08-31T10:21:45.172Z,24.90
2022-08-31T10:24:28.371Z,25.00
2022-08-31T10:27:14.997Z,25.20
2022-08-31T10:29:53.221Z,25.10
2022-08-31T10:32:31.807Z,25.30
2022-08-31T10:35:07.202Z,25.60
2022-08-31T10:37:57.958Z,25.50
2022-08-31T10:40:33.276Z,25.20
2022-08-31T10:43:14.287Z,25.40
2022-08-31T10:45:45.916Z,25.60
2022-08-31T10:48:14.331Z,25.80
2022-08-31T10:50:50.163Z,25.80
2022-08-31T10:53:34.870Z,26.10
2022-08-31T10:56:17.364Z,26.10
2022-08-31T10:59:01.854Z,26.40
2022-08-31T11:01:39.384Z,25.80
2022-08-31T11:04:34.542Z,25.90
2022-08-31T11:07:13.494Z,26.10
2022-08-31T11:09:49.295Z,26.10
2022-08-31T11:12:22.935Z,26.10
2022-08-31T11:15:10.797Z,26.00
2022-08-31T11:18:16.309Z,26.30
2022-08-31T11:21:03.897Z,26.60
2022-08-31T11:23:54.802Z,26.90
2022-08-31T11:26:52.953Z,26.40
2022-08-31T11:29:37.492Z,26.20
2022-08-31T11:32:12.877Z,26.20
2022-08-31T11:34:49.632Z,26.40
2022-08-31T11:37:54.254Z,26.80
2022-08-31T11:41:03.138Z,27.00
2022-08-31T11:43:52.102Z,26.90
2022-08-31T11:46:59.819Z,27.10
2022-08-31T11:49:47.365Z,27.20
2022-08-31T11:52:53.479Z,27.10
2022-08-31T11:55:28.508Z,27.20
2022-08-31T11:58:20.739Z,27.30
2022-08-31T12:00:58.496Z,27.50
2022-08-31T12:03:44.321Z,27.80
2022-08-31T12:06:51.140Z,27.40
2022-08-31T12:09:43.112Z,27.40
2022-08-31T12:12:27.844Z,27.70
2022-08-31T12:15:07.765Z,27.50
2022-08-31T12:17:47.469Z,27.70
2022-08-31T12:20:23.495Z,27.60
2022-08-31T12:23:38.183Z,27.60
2022-08-31T12:26:17.035Z,27.90
2022-08-31T12:29:03.682Z,27.40
2022-08-31T12:31:37.522Z,27.40
2022-08-31T12:34:09.123Z,27.30
2022-08-31T12:36:38.459Z,27.20
2022-08-31T12:39:11.828Z,27.20
2022-08-31T12:41:44.715Z,27.10
2022-08-31T12:44:14.340Z,26.70
2022-08-31T12:47:05.571Z,26.60
2022-08-31T12:49:56.830Z,27.00
2022-08-31T12:52:39.474Z,27.40
2022-08-31T12:55:24.797Z,27.30
2022-08-31T12:58:05.609Z,27.80
2022-08-31T13:00:35.592Z,27.70
2022-08-31T13:03:11.949Z,27.70
2022-08-31T13:05:41.199Z,28.10
2022-08-31T13:08:21.767Z,28.30
2022-08-31T13:10:50.006Z,28.40
2022-08-31T13:13:23.831Z,28.80
2022-08-31T13:15:58.979Z,28.50
2022-08-31T13:18:30.982Z,29.00
2022-08-31T13:21:05.988Z,29.20
2022-08-31T13:23:38.141Z,29.10
2022-08-31T13:26:15.248Z,29.00
2022-08-31T13:28:43.849Z,29.10
2022-08-31T13:31:19.560Z,29.10
2022-08-31T13:33:49.635Z,29.00
2022-08-31T13:36:30.311Z,29.20
2022-08-31T13:39:01.208Z,28.70
2022-08-31T13:41:36.898Z,28.80
2022-08-31T13:44:09.746Z,28.00
2022-08-31T13:46:44.463Z,28.00
2022-08-31T13:49:35.381Z,28.30
2022-08-31T13:52:05.927Z,29.00
2022-08-31T13:54:35.811Z,29.60
2022-08-31T13:57:12.270Z,30.00
2022-08-31T13:59:42.180Z,30.20
2022-08-31T14:02:36.800Z,30.50
2022-08-31T14:05:10.471Z,30.50
2022-08-31T14:08:02.151Z,31.00
2022-08-31T14:10:36.168Z,31.60
2022-08-31T14:13:12.164Z,32.20
2022-08-31T14:15:52.301Z,32.30
2022-08-31T14:18:27.416Z,32.30
2022-08-31T14:21:21.569Z,32.20
2022-08-31T14:23:52.826Z,32.20
2022-08-31T14:26:29.047Z,31.90
2022-08-31T14:29:00.370Z,31.30
2022-08-31T14:31:33.840Z,31.60
2022-08-31T14:34:20.397Z,31.20
2022-08-31T14:36:54.815Z,31.50
2022-08-31T14:39:26.989Z,31.70
2022-08-31T14:41:58.626Z,32.20
2022-08-31T14:44:31.089Z,32.20
2022-08-31T14:46:59.902Z,32.40
2022-08-31T14:49:30.629Z,32.40
2022-08-31T14:52:06.671Z,32.20
2022-08-31T14:54:41.507Z,32.40
2022-08-31T14:57:14.648Z,32.20
2022-08-31T14:59:46.787Z,32.20
2022-08-31T15:02:21.165Z,32.30
2022-08-31T15:04:50.141Z,32.20
2022-08-31T15:07:20.888Z,31.50
2022-08-31T15:09:50.168Z,31.60
2022-08-31T15:12:18.671Z,31.30
2022-08-31T15:14:47.266Z,31.10
2022-08-31T15:17:19.228Z,31.20
2022-08-31T15:19:50.380Z,31.40
2022-08-31T15:22:20.423Z,31.40
2022-08-31T15:24:50.102Z,31.50
2022-08-31T15:27:19.015Z,31.50
2022-08-31T15:29:49.668Z,31.40
2022-08-31T15:32:18.695Z,31.00
2022-08-31T15:34:56.877Z,30.90
2022-08-31T15:37:27.356Z,30.70
2022-08-31T15:40:02.109Z,30.20
2022-08-31T15:42:36.866Z,29.80
2022-08-31T15:45:07.046Z,29.80
2022-08-31T15:47:55.543Z,30.00
2022-08-31T15:50:31.854Z,29.90
2022-08-31T15:53:08.854Z,29.90
2022-08-31T15:55:40.736Z,29.80
2022-08-31T15:58:10.401Z,29.60
2022-08-31T16:00:42.057Z,29.40
2022-08-31T16:03:11.387Z,29.60
2022-08-31T16:05:39.925Z,29.50
2022-08-31T16:08:11.206Z,29.30
2022-08-31T16:10:42.829Z,29.20
2022-08-31T16:13:11.207Z,28.70
2022-08-31T16:15:40.246Z,28.70
2022-08-31T16:18:09.784Z,28.30
2022-08-31T16:20:39.281Z,28.00
2022-08-31T16:23:08.930Z,27.80
2022-08-31T16:25:47.308Z,27.60
2022-08-31T16:28:17.762Z,27.50
2022-08-31T16:30:46.053Z,27.20
2022-08-31T16:33:14.223Z,26.80
2022-08-31T16:35:44.492Z,26.50
2022-08-31T16:38:15.117Z,26.20
2022-08-31T16:40:44.037Z,25.70
2022-08-31T16:43:12.593Z,25.50
2022-08-31T16:45:41.316Z,25.30
2022-08-31T16:48:29.478Z,25.20
2022-08-31T16:51:01.767Z,25.00
2022-08-31T16:53:31.745Z,24.80
2022-08-31T16:56:00.520Z,24.60
2022-08-31T17:01:22.001Z,24.40
2022-08-31T17:03:53.331Z,24.30
2022-08-31T17:06:21.503Z,24.10
2022-08-31T17:08:54.207Z,24.00
2022-08-31T17:11:25.210Z,23.90
2022-08-31T17:13:58.391Z,23.70
2022-08-31T17:16:28.778Z,23.60
2022-08-31T17:18:58.417Z,23.50
2022-08-31T17:21:29.897Z,23.40
2022-08-31T17:24:01.910Z,23.30
2022-08-31T17:26:33.624Z,23.10
2022-08-31T17:29:04.255Z,23.00
2022-08-31T17:31:34.935Z,22.80
2022-08-31T17:34:03.508Z,22.70
2022-08-31T17:36:37.231Z,22.60
2022-08-31T17:39:08.115Z,22.50
2022-08-31T17:41:37.509Z,22.40
2022-08-31T17:44:05.931Z,22.40
2022-08-31T17:46:34.598Z,22.30
2022-08-31T17:49:02.983Z,22.20
2022-08-31T17:51:35.235Z,22.10
2022-08-31T17:54:06.390Z,22.00
2022-08-31T17:56:42.192Z,21.90
2022-08-31T17:59:18.533Z,21.80
2022-08-31T18:01:48.941Z,21.70
2022-08-31T18:04:19.038Z,21.50
2022-08-31T18:06:51.616Z,21.40
2022-08-31T18:09:21.599Z,21.30
2022-08-31T18:11:53.011Z,21.20
2022-08-31T18:14:23.415Z,21.00
2022-08-31T18:16:53.859Z,20.90
2022-08-31T18:19:27.783Z,20.80
2022-08-31T18:21:59.676Z,20.70
2022-08-31T18:24:29.204Z,20.60
2022-08-31T18:27:03.994Z,20.40
2022-08-31T18:29:34.332Z,20.30
2022-08-31T18:32:05.148Z,20.20
2022-08-31T18:34:39.150Z,20.10
2022-08-31T18:37:09.312Z,20.00
2022-08-31T18:39:59.662Z,19.90
2022-08-31T18:42:47.319Z,19.80
2022-08-31T18:45:16.846Z,19.70
2022-08-31T18:48:01.673Z,19.60
2022-08-31T18:50:37.005Z,19.50
2022-08-31T18:53:10.937Z,19.40
2022-08-31T18:55:43.577Z,19.30
2022-08-31T18:58:13.656Z,19.20
2022-08-31T19:00:42.135Z,19.10
2022-08-31T19:03:10.773Z,19.00
2022-08-31T19:05:45.343Z,18.90
2022-08-31T19:08:13.485Z,18.80
2022-08-31T19:10:42.266Z,18.60
2022-08-31T19:13:10.655Z,18.50
2022-08-31T19:15:41.997Z,18.40
2022-08-31T19:18:10.620Z,18.30
2022-08-31T19:20:39.068Z,18.20
2022-08-31T19:23:08.162Z,18.10
2022-08-31T19:25:43.334Z,18.00
2022-08-31T19:28:11.995Z,17.90
2022-08-31T19:30:47.580Z,17.80
2022-08-31T19:33:16.392Z,17.70
2022-08-31T19:35:45.084Z,17.60
2022-08-31T19:38:14.163Z,17.60
2022-08-31T19:40:43.298Z,17.50
2022-08-31T19:46:16.736Z,17.30
2022-08-31T19:48:46.236Z,17.20
2022-08-31T19:51:16.803Z,17.10
2022-08-31T19:53:46.231Z,17.00
2022-08-31T19:56:17.483Z,16.90
2022-08-31T19:58:48.417Z,16.80
2022-08-31T20:01:19.632Z,16.80
2022-08-31T20:03:49.175Z,16.70
2022-08-31T20:06:19.451Z,16.60
2022-08-31T20:08:49.353Z,16.60
2022-08-31T20:11:21.908Z,16.50
2022-08-31T20:13:50.529Z,16.50
2022-08-31T20:16:24.517Z,16.40
2022-08-31T20:19:04.097Z,16.40
2022-08-31T20:21:34.623Z,16.30
2022-08-31T20:24:05.770Z,16.30
2022-08-31T20:26:38.228Z,16.30
2022-08-31T20:29:18.059Z,16.20
2022-08-31T20:31:49.906Z,16.10
2022-08-31T20:34:21.762Z,16.00
2022-08-31T20:36:59.953Z,15.90
2022-08-31T20:39:30.301Z,15.80
2022-08-31T20:41:59.046Z,15.70
2022-08-31T20:44:30.054Z,15.70
2022-08-31T20:47:18.754Z,15.60
2022-08-31T20:49:54.608Z,15.50
2022-08-31T20:52:25.204Z,15.50
2022-08-31T20:55:01.378Z,15.40
2022-08-31T20:57:30.239Z,15.30
2022-08-31T21:00:00.539Z,15.20
2022-08-31T21:02:31.796Z,15.20
2022-08-31T21:05:15.121Z,15.10
2022-08-31T21:07:49.634Z,15.00
2022-08-31T21:10:21.034Z,14.90
2022-08-31T21:12:58.833Z,14.90
2022-08-31T21:15:28.893Z,14.80
2022-08-31T21:17:59.544Z,14.80
2022-08-31T21:20:28.014Z,14.70
2022-08-31T21:22:56.279Z,14.60
2022-08-31T21:25:24.487Z,14.50
2022-08-31T21:27:53.094Z,14.50
2022-08-31T21:30:21.406Z,14.40
2022-08-31T21:32:49.508Z,14.40
2022-08-31T21:35:19.472Z,14.30
2022-08-31T21:37:47.810Z,14.30
2022-08-31T21:40:18.634Z,14.20
2022-08-31T21:42:47.194Z,14.20
2022-08-31T21:45:15.818Z,14.10
2022-08-31T21:47:44.372Z,14.00
2022-08-31T21:50:13.796Z,14.00
2022-08-31T21:52:43.543Z,13.90
2022-08-31T21:55:13.755Z,13.90
2022-08-31T21:57:43.321Z,13.80
2022-08-31T22:00:17.171Z,13.70
2022-08-31T22:02:50.895Z,13.60
2022-08-31T22:05:19.530Z,13.60
2022-08-31T22:07:49.333Z,13.50
2022-08-31T22:10:17.609Z,13.40
2022-08-31T22:12:45.797Z,13.30
2022-08-31T22:15:16.760Z,13.20
2022-08-31T22:18:06.065Z,13.10
2022-08-31T22:20:33.945Z,13.10
2022-08-31T22:23:05.614Z,13.00
2022-08-31T22:25:37.990Z,13.00
2022-08-31T22:28:07.417Z,12.90
2022-08-31T22:30:37.338Z,12.90
2022-08-31T22:33:05.582Z,12.80
2022-08-31T22:35:38.918Z,12.80
2022-08-31T22:38:09.123Z,12.80
2022-08-31T22:40:39.403Z,12.70
2022-08-31T22:43:08.074Z,12.70
2022-08-31T22:45:46.186Z,12.60
2022-08-31T22:48:16.788Z,12.60
2022-08-31T22:50:45.237Z,12.60
2022-08-31T22:53:14.906Z,12.50
2022-08-31T22:55:43.506Z,12.50
2022-08-31T22:58:12.602Z,12.50
2022-08-31T23:00:46.300Z,12.40
2022-08-31T23:03:14.796Z,12.40
2022-08-31T23:05:43.900Z,12.30
2022-08-31T23:08:13.815Z,12.20
2022-08-31T23:10:44.060Z,12.20
2022-08-31T23:13:12.153Z,12.10
2022-08-31T23:15:41.071Z,12.10
2022-08-31T23:18:10.597Z,12.10
2022-08-31T23:20:41.866Z,12.00
2022-08-31T23:23:10.509Z,12.00
2022-08-31T23:25:40.527Z,11.90
2022-08-31T23:28:10.079Z,11.90
2022-08-31T23:30:43.854Z,11.80
2022-08-31T23:33:11.965Z,11.80
2022-08-31T23:35:40.960Z,11.70
2022-08-31T23:38:09.149Z,11.70
2022-08-31T23:40:37.333Z,11.60
2022-08-31T23:43:05.862Z,11.60
2022-08-31T23:45:35.479Z,11.60
2022-08-31T23:48:04.656Z,11.50
2022-08-31T23:50:33.334Z,11.50
2022-08-31T23:53:02.070Z,11.40
2022-08-31T23:55:31.165Z,11.40
2022-08-31T23:58:02.347Z,11.40
